sensor_id;sensor_type;location;lat;lon;timestamp;pressure;altitude;pressure_sealevel;temperature;humidity
54512;BME280;40419;47.438;19.026;2022-09-02T00:01:18;99969.75;;;17.03;52.33
54512;BME280;40419;47.438;19.026;2022-09-02T00:03:46;99963.81;;;17.06;51.37
54512;BME280;40419;47.438;19.026;2022-09-02T00:06:17;99961.22;;;16.99;51.79
54512;BME280;40419;47.438;19.026;2022-09-02T00:08:43;99960.66;;;16.97;52.34
54512;BME280;40419;47.438;19.026;2022-09-02T00:11:16;99957.66;;;16.98;51.46
54512;BME280;40419;47.438;19.026;2022-09-02T00:13:48;99950.53;;;16.97;52.02
54512;BME280;40419;47.438;19.026;2022-09-02T00:16:16;99958.03;;;16.90;50.99
54512;BME280;40419;47.438;19.026;2022-09-02T00:18:42;99955.88;;;16.92;51.27
54512;BME280;40419;47.438;19.026;2022-09-02T00:21:10;99954.38;;;16.73;51.70
54512;BME280;40419;47.438;19.026;2022-09-02T00:23:41;99946.19;;;16.73;52.47
54512;BME280;40419;47.438;19.026;2022-09-02T00:26:07;99950.66;;;16.79;52.19
54512;BME280;40419;47.438;19.026;2022-09-02T00:28:34;99947.81;;;16.74;51.96
54512;BME280;40419;47.438;19.026;2022-09-02T00:31:02;99949.53;;;17.04;50.17
54512;BME280;40419;47.438;19.026;2022-09-02T00:33:27;99954.69;;;17.00;50.42
54512;BME280;40419;47.438;19.026;2022-09-02T00:35:57;99945.53;;;16.94;50.49
54512;BME280;40419;47.438;19.026;2022-09-02T00:38:23;99947.09;;;16.78;50.18
54512;BME280;40419;47.438;19.026;2022-09-02T00:40:54;99941.03;;;16.76;51.58
54512;BME280;40419;47.438;19.026;2022-09-02T00:43:36;99944.22;;;16.85;51.12
54512;BME280;40419;47.438;19.026;2022-09-02T00:46:02;99938.31;;;16.76;51.06
54512;BME280;40419;47.438;19.026;2022-09-02T00:48:33;99942.56;;;16.96;50.10
54512;BME280;40419;47.438;19.026;2022-09-02T00:51:00;99941.13;;;16.93;50.92
54512;BME280;40419;47.438;19.026;2022-09-02T00:53:28;99935.91;;;16.92;50.13
54512;BME280;40419;47.438;19.026;2022-09-02T00:55:54;99935.66;;;16.93;50.32
54512;BME280;40419;47.438;19.026;2022-09-02T00:58:24;99935.25;;;16.73;50.40
54512;BME280;40419;47.438;19.026;2022-09-02T01:00:55;99943.66;;;16.71;51.17
54512;BME280;40419;47.438;19.026;2022-09-02T01:03:27;99938.66;;;16.92;49.68
54512;BME280;40419;47.438;19.026;2022-09-02T01:06:01;99932.00;;;16.88;49.73
54512;BME280;40419;47.438;19.026;2022-09-02T01:08:30;99936.16;;;16.90;48.84
54512;BME280;40419;47.438;19.026;2022-09-02T01:11:01;99938.16;;;16.95;48.69
54512;BME280;40419;47.438;19.026;2022-09-02T01:13:30;99930.19;;;16.93;49.59
54512;BME280;40419;47.438;19.026;2022-09-02T01:16:03;99933.09;;;16.75;49.25
54512;BME280;40419;47.438;19.026;2022-09-02T01:18:37;99938.78;;;16.85;49.26
54512;BME280;40419;47.438;19.026;2022-09-02T01:21:06;99941.84;;;17.00;48.60
54512;BME280;40419;47.438;19.026;2022-09-02T01:23:35;99939.28;;;16.70;49.48
54512;BME280;40419;47.438;19.026;2022-09-02T01:26:04;99934.00;;;16.92;49.80
54512;BME280;40419;47.438;19.026;2022-09-02T01:28:34;99942.09;;;16.87;49.89
54512;BME280;40419;47.438;19.026;2022-09-02T01:31:04;99936.03;;;16.85;49.14
54512;BME280;40419;47.438;19.026;2022-09-02T01:33:35;99928.50;;;17.04;48.69
54512;BME280;40419;47.438;19.026;2022-09-02T01:36:00;99932.69;;;16.95;49.92
54512;BME280;40419;47.438;19.026;2022-09-02T01:38:28;99934.94;;;16.86;48.77
54512;BME280;40419;47.438;19.026;2022-09-02T01:40:56;99936.84;;;16.86;48.82
54512;BME280;40419;47.438;19.026;2022-09-02T01:43:27;99936.66;;;16.63;48.53
54512;BME280;40419;47.438;19.026;2022-09-02T01:45:58;99931.19;;;16.63;49.66
54512;BME280;40419;47.438;19.026;2022-09-02T01:48:29;99925.78;;;16.52;49.27
54512;BME280;40419;47.438;19.026;2022-09-02T01:50:58;99940.06;;;16.94;47.68
54512;BME280;40419;47.438;19.026;2022-09-02T01:53:30;99936.88;;;16.74;48.30
54512;BME280;40419;47.438;19.026;2022-09-02T01:55:59;99933.09;;;16.75;49.08
54512;BME280;40419;47.438;19.026;2022-09-02T01:58:31;99929.16;;;16.71;48.79
54512;BME280;40419;47.438;19.026;2022-09-02T02:00:57;99922.84;;;16.82;48.32
54512;BME280;40419;47.438;19.026;2022-09-02T02:03:25;99919.78;;;16.66;49.88
54512;BME280;40419;47.438;19.026;2022-09-02T02:05:55;99922.69;;;17.00;48.59
54512;BME280;40419;47.438;19.026;2022-09-02T02:08:23;99915.00;;;16.74;49.26
54512;BME280;40419;47.438;19.026;2022-09-02T02:10:53;99915.38;;;16.77;48.88
54512;BME280;40419;47.438;19.026;2022-09-02T02:13:23;99914.28;;;16.90;48.75
54512;BME280;40419;47.438;19.026;2022-09-02T02:15:51;99911.44;;;16.73;49.39
54512;BME280;40419;47.438;19.026;2022-09-02T02:18:16;99920.00;;;16.65;49.24
54512;BME280;40419;47.438;19.026;2022-09-02T02:20:44;99917.66;;;16.69;48.71
54512;BME280;40419;47.438;19.026;2022-09-02T02:23:10;99916.47;;;16.64;49.10
54512;BME280;40419;47.438;19.026;2022-09-02T02:25:36;99914.38;;;16.55;48.62
54512;BME280;40419;47.438;19.026;2022-09-02T02:28:05;99913.69;;;16.88;48.15
54512;BME280;40419;47.438;19.026;2022-09-02T02:30:31;99917.75;;;16.74;48.79
54512;BME280;40419;47.438;19.026;2022-09-02T02:32:59;99919.66;;;16.73;48.87
54512;BME280;40419;47.438;19.026;2022-09-02T02:35:29;99914.00;;;16.51;49.53
54512;BME280;40419;47.438;19.026;2022-09-02T02:37:55;99903.94;;;16.40;50.31
54512;BME280;40419;47.438;19.026;2022-09-02T02:40:24;99906.25;;;16.60;49.40
54512;BME280;40419;47.438;19.026;2022-09-02T02:42:55;99905.75;;;16.75;49.36
54512;BME280;40419;47.438;19.026;2022-09-02T02:45:25;99910.72;;;16.78;48.92
54512;BME280;40419;47.438;19.026;2022-09-02T02:47:51;99907.47;;;16.52;50.60
54512;BME280;40419;47.438;19.026;2022-09-02T02:50:20;99906.97;;;16.55;50.51
54512;BME280;40419;47.438;19.026;2022-09-02T02:52:52;99908.44;;;16.46;50.41
54512;BME280;40419;47.438;19.026;2022-09-02T02:55:23;99905.91;;;16.56;50.12
54512;BME280;40419;47.438;19.026;2022-09-02T02:57:54;99912.78;;;16.59;49.54
54512;BME280;40419;47.438;19.026;2022-09-02T03:00:25;99912.47;;;16.43;48.77
54512;BME280;40419;47.438;19.026;2022-09-02T03:02:59;99912.72;;;16.42;50.24
54512;BME280;40419;47.438;19.026;2022-09-02T03:05:28;99919.63;;;16.33;50.10
54512;BME280;40419;47.438;19.026;2022-09-02T03:07:56;99916.97;;;16.38;50.86
54512;BME280;40419;47.438;19.026;2022-09-02T03:10:27;99914.16;;;16.33;50.28
54512;BME280;40419;47.438;19.026;2022-09-02T03:12:56;99917.59;;;16.40;49.82
54512;BME280;40419;47.438;19.026;2022-09-02T03:15:21;99905.22;;;16.49;49.67
54512;BME280;40419;47.438;19.026;2022-09-02T03:17:53;99900.97;;;16.29;49.99
54512;BME280;40419;47.438;19.026;2022-09-02T03:20:20;99897.06;;;16.13;50.64
54512;BME280;40419;47.438;19.026;2022-09-02T03:22:49;99903.34;;;16.26;50.70
54512;BME280;40419;47.438;19.026;2022-09-02T03:25:18;99897.88;;;16.26;50.90
54512;BME280;40419;47.438;19.026;2022-09-02T03:27:48;99907.59;;;16.45;49.88
54512;BME280;40419;47.438;19.026;2022-09-02T03:30:22;99900.59;;;16.26;50.09
54512;BME280;40419;47.438;19.026;2022-09-02T03:32:53;99900.25;;;16.22;50.05
54512;BME280;40419;47.438;19.026;2022-09-02T03:35:25;99906.78;;;16.33;49.97
54512;BME280;40419;47.438;19.026;2022-09-02T03:37:59;99898.81;;;16.43;49.52
54512;BME280;40419;47.438;19.026;2022-09-02T03:40:30;99907.41;;;16.23;50.47
54512;BME280;40419;47.438;19.026;2022-09-02T03:42:58;99906.59;;;16.11;50.17
54512;BME280;40419;47.438;19.026;2022-09-02T03:45:27;99909.41;;;16.16;50.56
54512;BME280;40419;47.438;19.026;2022-09-02T03:47:57;99906.22;;;16.07;51.17
54512;BME280;40419;47.438;19.026;2022-09-02T03:50:33;99907.41;;;16.00;51.10
54512;BME280;40419;47.438;19.026;2022-09-02T03:53:02;99909.31;;;16.11;50.95
54512;BME280;40419;47.438;19.026;2022-09-02T03:55:30;99904.19;;;16.03;51.03
54512;BME280;40419;47.438;19.026;2022-09-02T03:57:59;99904.19;;;15.91;51.56
54512;BME280;40419;47.438;19.026;2022-09-02T04:00:28;99908.22;;;16.12;51.34
54512;BME280;40419;47.438;19.026;2022-09-02T04:03:01;99909.06;;;16.12;50.84
54512;BME280;40419;47.438;19.026;2022-09-02T04:05:31;99901.59;;;15.96;51.26
54512;BME280;40419;47.438;19.026;2022-09-02T04:07:59;99909.53;;;15.86;51.58
54512;BME280;40419;47.438;19.026;2022-09-02T04:10:27;99911.31;;;15.80;51.79
54512;BME280;40419;47.438;19.026;2022-09-02T04:12:57;99916.91;;;15.85;51.54
54512;BME280;40419;47.438;19.026;2022-09-02T04:15:25;99916.75;;;15.80;51.62
54512;BME280;40419;47.438;19.026;2022-09-02T04:17:55;99912.38;;;15.91;51.96
54512;BME280;40419;47.438;19.026;2022-09-02T04:20:26;99916.19;;;15.90;51.41
54512;BME280;40419;47.438;19.026;2022-09-02T04:22:55;99914.28;;;15.90;51.51
54512;BME280;40419;47.438;19.026;2022-09-02T04:25:23;99917.13;;;15.95;51.29
54512;BME280;40419;47.438;19.026;2022-09-02T04:27:53;99913.09;;;16.10;50.99
54512;BME280;40419;47.438;19.026;2022-09-02T04:30:20;99910.94;;;16.00;51.25
54512;BME280;40419;47.438;19.026;2022-09-02T04:32:52;99916.28;;;15.83;51.16
54512;BME280;40419;47.438;19.026;2022-09-02T04:35:22;99918.44;;;15.93;51.11
54512;BME280;40419;47.438;19.026;2022-09-02T04:37:50;99917.81;;;15.79;51.57
54512;BME280;40419;47.438;19.026;2022-09-02T04:40:16;99919.16;;;15.88;52.80
54512;BME280;40419;47.438;19.026;2022-09-02T04:42:47;99915.09;;;15.91;52.14
54512;BME280;40419;47.438;19.026;2022-09-02T04:45:15;99927.00;;;15.97;51.92
54512;BME280;40419;47.438;19.026;2022-09-02T04:47:42;99915.50;;;16.06;50.65
54512;BME280;40419;47.438;19.026;2022-09-02T04:50:10;99920.22;;;15.87;52.15
54512;BME280;40419;47.438;19.026;2022-09-02T04:52:37;99927.34;;;16.00;53.03
54512;BME280;40419;47.438;19.026;2022-09-02T04:55:07;99932.31;;;16.03;51.50
54512;BME280;40419;47.438;19.026;2022-09-02T04:57:36;99921.16;;;16.17;50.46
54512;BME280;40419;47.438;19.026;2022-09-02T05:00:09;99920.81;;;16.13;51.71
54512;BME280;40419;47.438;19.026;2022-09-02T05:02:37;99929.34;;;16.28;51.03
54512;BME280;40419;47.438;19.026;2022-09-02T05:05:04;99929.81;;;16.37;51.06
54512;BME280;40419;47.438;19.026;2022-09-02T05:07:39;99930.06;;;16.36;50.37
54512;BME280;40419;47.438;19.026;2022-09-02T05:10:07;99930.31;;;16.22;52.71
54512;BME280;40419;47.438;19.026;2022-09-02T05:12:38;99934.31;;;16.55;51.37
54512;BME280;40419;47.438;19.026;2022-09-02T05:15:08;99932.81;;;16.24;51.39
54512;BME280;40419;47.438;19.026;2022-09-02T05:17:37;99933.13;;;16.39;52.74
54512;BME280;40419;47.438;19.026;2022-09-02T05:20:06;99926.47;;;16.47;51.66
54512;BME280;40419;47.438;19.026;2022-09-02T05:22:36;99928.28;;;16.41;52.03
54512;BME280;40419;47.438;19.026;2022-09-02T05:25:07;99927.78;;;16.56;51.48
54512;BME280;40419;47.438;19.026;2022-09-02T05:27:37;99931.63;;;16.84;50.91
54512;BME280;40419;47.438;19.026;2022-09-02T05:30:07;99935.59;;;16.64;51.54
54512;BME280;40419;47.438;19.026;2022-09-02T05:32:33;99932.31;;;16.51;52.20
54512;BME280;40419;47.438;19.026;2022-09-02T05:34:59;99937.50;;;16.64;52.16
54512;BME280;40419;47.438;19.026;2022-09-02T05:37:28;99929.72;;;16.84;52.86
54512;BME280;40419;47.438;19.026;2022-09-02T05:39:55;99929.88;;;16.66;51.47
54512;BME280;40419;47.438;19.026;2022-09-02T05:42:24;99932.97;;;16.70;50.91
54512;BME280;40419;47.438;19.026;2022-09-02T05:44:50;99931.28;;;16.80;51.09
54512;BME280;40419;47.438;19.026;2022-09-02T05:47:21;99928.88;;;16.84;50.41
54512;BME280;40419;47.438;19.026;2022-09-02T05:49:52;99923.31;;;16.91;51.65
54512;BME280;40419;47.438;19.026;2022-09-02T05:52:19;99926.31;;;16.77;51.21
54512;BME280;40419;47.438;19.026;2022-09-02T05:54:48;99926.16;;;16.84;51.93
54512;BME280;40419;47.438;19.026;2022-09-02T05:57:16;99927.22;;;16.95;50.55
54512;BME280;40419;47.438;19.026;2022-09-02T06:00:04;99922.38;;;16.73;51.22
54512;BME280;40419;47.438;19.026;2022-09-02T06:02:43;99932.03;;;16.76;50.38
54512;BME280;40419;47.438;19.026;2022-09-02T06:05:36;99929.63;;;16.79;51.47
54512;BME280;40419;47.438;19.026;2022-09-02T06:08:15;99932.25;;;16.74;52.68
54512;BME280;40419;47.438;19.026;2022-09-02T06:10:41;99934.94;;;16.86;51.45
54512;BME280;40419;47.438;19.026;2022-09-02T06:13:13;99929.53;;;16.74;52.17
54512;BME280;40419;47.438;19.026;2022-09-02T06:15:48;99935.94;;;16.68;51.56
54512;BME280;40419;47.438;19.026;2022-09-02T06:18:17;99938.41;;;16.93;51.52
54512;BME280;40419;47.438;19.026;2022-09-02T06:20:47;99934.59;;;16.82;52.19
54512;BME280;40419;47.438;19.026;2022-09-02T06:23:16;99943.78;;;16.88;51.62
54512;BME280;40419;47.438;19.026;2022-09-02T06:25:49;99939.72;;;16.91;53.00
54512;BME280;40419;47.438;19.026;2022-09-02T06:28:18;99948.56;;;17.10;51.10
54512;BME280;40419;47.438;19.026;2022-09-02T06:30:48;99937.72;;;17.15;52.23
54512;BME280;40419;47.438;19.026;2022-09-02T06:33:20;99946.84;;;17.21;51.18
54512;BME280;40419;47.438;19.026;2022-09-02T06:35:49;99938.66;;;17.21;51.08
54512;BME280;40419;47.438;19.026;2022-09-02T06:38:16;99943.44;;;17.13;51.80
54512;BME280;40419;47.438;19.026;2022-09-02T06:40:48;99939.78;;;17.08;52.41
54512;BME280;40419;47.438;19.026;2022-09-02T06:43:20;99944.94;;;16.92;51.52
54512;BME280;40419;47.438;19.026;2022-09-02T06:46:01;99941.59;;;17.31;51.74
54512;BME280;40419;47.438;19.026;2022-09-02T06:48:31;99942.28;;;17.38;51.95
54512;BME280;40419;47.438;19.026;2022-09-02T06:50:57;99947.88;;;17.31;49.99
54512;BME280;40419;47.438;19.026;2022-09-02T06:53:28;99951.13;;;16.88;50.63
54512;BME280;40419;47.438;19.026;2022-09-02T06:55:54;99946.31;;;17.07;53.00
54512;BME280;40419;47.438;19.026;2022-09-02T06:58:23;99943.34;;;17.37;51.45
54512;BME280;40419;47.438;19.026;2022-09-02T07:00:51;99941.38;;;17.21;49.87
54512;BME280;40419;47.438;19.026;2022-09-02T07:03:21;99936.59;;;17.28;51.92
54512;BME280;40419;47.438;19.026;2022-09-02T07:06:10;99941.09;;;17.05;50.53
54512;BME280;40419;47.438;19.026;2022-09-02T07:08:42;99946.81;;;17.32;52.46
54512;BME280;40419;47.438;19.026;2022-09-02T07:11:16;99945.94;;;17.44;51.29
54512;BME280;40419;47.438;19.026;2022-09-02T07:13:42;99935.75;;;17.56;51.10
54512;BME280;40419;47.438;19.026;2022-09-02T07:16:11;99933.66;;;17.63;50.10
54512;BME280;40419;47.438;19.026;2022-09-02T07:18:40;99937.09;;;17.87;49.88
54512;BME280;40419;47.438;19.026;2022-09-02T07:21:10;99936.31;;;17.75;51.73
54512;BME280;40419;47.438;19.026;2022-09-02T07:23:38;99942.97;;;17.62;49.58
54512;BME280;40419;47.438;19.026;2022-09-02T07:26:12;99944.06;;;17.32;50.16
54512;BME280;40419;47.438;19.026;2022-09-02T07:28:41;99947.31;;;17.29;49.52
54512;BME280;40419;47.438;19.026;2022-09-02T07:31:15;99941.16;;;17.39;50.00
54512;BME280;40419;47.438;19.026;2022-09-02T07:33:43;99942.13;;;17.62;49.73
54512;BME280;40419;47.438;19.026;2022-09-02T07:36:11;99938.47;;;17.56;51.87
54512;BME280;40419;47.438;19.026;2022-09-02T07:38:38;99943.03;;;17.84;50.15
54512;BME280;40419;47.438;19.026;2022-09-02T07:41:09;99947.88;;;17.77;51.79
54512;BME280;40419;47.438;19.026;2022-09-02T07:43:38;99952.69;;;17.70;51.70
54512;BME280;40419;47.438;19.026;2022-09-02T07:46:06;99938.91;;;17.82;49.23
54512;BME280;40419;47.438;19.026;2022-09-02T07:48:33;99937.25;;;17.64;50.57
54512;BME280;40419;47.438;19.026;2022-09-02T07:51:00;99942.75;;;17.98;50.24
54512;BME280;40419;47.438;19.026;2022-09-02T07:53:31;99942.81;;;18.20;51.17
54512;BME280;40419;47.438;19.026;2022-09-02T07:55:59;99944.56;;;18.09;51.58
54512;BME280;40419;47.438;19.026;2022-09-02T07:58:28;99939.69;;;17.94;51.23
54512;BME280;40419;47.438;19.026;2022-09-02T08:00:54;99938.47;;;17.73;50.56
54512;BME280;40419;47.438;19.026;2022-09-02T08:03:23;99936.81;;;18.23;51.22
54512;BME280;40419;47.438;19.026;2022-09-02T08:05:53;99934.28;;;18.38;50.68
54512;BME280;40419;47.438;19.026;2022-09-02T08:08:22;99938.03;;;18.10;52.25
54512;BME280;40419;47.438;19.026;2022-09-02T08:10:53;99940.47;;;18.29;51.79
54512;BME280;40419;47.438;19.026;2022-09-02T08:13:19;99934.03;;;18.18;51.85
54512;BME280;40419;47.438;19.026;2022-09-02T08:15:45;99940.03;;;18.37;51.40
54512;BME280;40419;47.438;19.026;2022-09-02T08:18:11;99935.34;;;18.54;51.15
54512;BME280;40419;47.438;19.026;2022-09-02T08:20:36;99942.34;;;18.45;49.95
54512;BME280;40419;47.438;19.026;2022-09-02T08:23:04;99943.38;;;18.61;51.24
54512;BME280;40419;47.438;19.026;2022-09-02T08:25:35;99933.63;;;18.48;51.70
54512;BME280;40419;47.438;19.026;2022-09-02T08:28:03;99935.75;;;18.24;50.03
54512;BME280;40419;47.438;19.026;2022-09-02T08:30:32;99934.03;;;18.57;51.85
54512;BME280;40419;47.438;19.026;2022-09-02T08:33:02;99934.72;;;18.69;50.48
54512;BME280;40419;47.438;19.026;2022-09-02T08:35:28;99929.75;;;18.66;50.20
54512;BME280;40419;47.438;19.026;2022-09-02T08:38:01;99933.50;;;18.82;51.32
54512;BME280;40419;47.438;19.026;2022-09-02T08:40:40;99933.38;;;18.72;51.53
54512;BME280;40419;47.438;19.026;2022-09-02T08:46:09;99927.94;;;18.99;50.41
54512;BME280;40419;47.438;19.026;2022-09-02T08:51:25;99924.28;;;19.16;49.08
54512;BME280;40419;47.438;19.026;2022-09-02T08:56:32;99927.28;;;18.48;50.54
54512;BME280;40419;47.438;19.026;2022-09-02T08:59:01;99939.56;;;18.23;50.87
54512;BME280;40419;47.438;19.026;2022-09-02T09:09:50;99923.44;;;18.88;50.17
54512;BME280;40419;47.438;19.026;2022-09-02T09:17:46;99917.16;;;18.87;49.99
54512;BME280;40419;47.438;19.026;2022-09-02T09:20:20;99923.78;;;19.19;49.55
54512;BME280;40419;47.438;19.026;2022-09-02T09:22:58;99918.28;;;18.91;51.02
54512;BME280;40419;47.438;19.026;2022-09-02T09:25:29;99914.56;;;19.03;51.29
54512;BME280;40419;47.438;19.026;2022-09-02T09:27:58;99920.25;;;19.23;50.07
54512;BME280;40419;47.438;19.026;2022-09-02T09:30:24;99916.16;;;19.26;50.91
54512;BME280;40419;47.438;19.026;2022-09-02T09:32:56;99927.25;;;19.36;49.62
54512;BME280;40419;47.438;19.026;2022-09-02T09:35:24;99924.38;;;19.21;51.24
54512;BME280;40419;47.438;19.026;2022-09-02T09:37:52;99918.91;;;18.99;49.18
54512;BME280;40419;47.438;19.026;2022-09-02T09:45:38;99910.13;;;19.83;49.32
54512;BME280;40419;47.438;19.026;2022-09-02T09:53:34;99904.25;;;20.07;48.44
54512;BME280;40419;47.438;19.026;2022-09-02T09:56:22;99907.00;;;20.12;49.31
54512;BME280;40419;47.438;19.026;2022-09-02T09:58:54;99895.66;;;19.98;49.11
54512;BME280;40419;47.438;19.026;2022-09-02T10:01:24;99895.53;;;19.78;48.72
54512;BME280;40419;47.438;19.026;2022-09-02T10:03:54;99897.63;;;19.71;48.15
54512;BME280;40419;47.438;19.026;2022-09-02T10:06:42;99896.16;;;19.58;49.08
54512;BME280;40419;47.438;19.026;2022-09-02T10:12:07;99899.09;;;19.78;49.25
54512;BME280;40419;47.438;19.026;2022-09-02T10:36:31;99907.19;;;19.95;48.35
54512;BME280;40419;47.438;19.026;2022-09-02T10:39:35;99899.19;;;20.36;50.67
54512;BME280;40419;47.438;19.026;2022-09-02T10:42:33;99903.00;;;20.30;49.53
54512;BME280;40419;47.438;19.026;2022-09-02T10:48:14;99895.53;;;20.68;48.16
54512;BME280;40419;47.438;19.026;2022-09-02T10:51:20;99901.22;;;20.09;48.69
54512;BME280;40419;47.438;19.026;2022-09-02T10:56:58;99882.47;;;20.48;49.06
54512;BME280;40419;47.438;19.026;2022-09-02T10:59:43;99889.50;;;20.71;49.36
54512;BME280;40419;47.438;19.026;2022-09-02T11:02:17;99887.59;;;20.82;49.75
54512;BME280;40419;47.438;19.026;2022-09-02T11:05:27;99891.16;;;20.78;47.41
54512;BME280;40419;47.438;19.026;2022-09-02T11:08:20;99888.38;;;20.73;49.69
54512;BME280;40419;47.438;19.026;2022-09-02T11:10:58;99894.34;;;20.59;48.35
54512;BME280;40419;47.438;19.026;2022-09-02T11:16:27;99889.31;;;21.14;49.45
54512;BME280;40419;47.438;19.026;2022-09-02T11:19:34;99889.63;;;21.33;47.73
54512;BME280;40419;47.438;19.026;2022-09-02T11:22:16;99886.00;;;21.07;47.59
54512;BME280;40419;47.438;19.026;2022-09-02T11:24:57;99884.94;;;21.23;48.13
54512;BME280;40419;47.438;19.026;2022-09-02T11:27:32;99880.50;;;21.02;46.22
54512;BME280;40419;47.438;19.026;2022-09-02T11:30:04;99880.06;;;20.62;48.74
54512;BME280;40419;47.438;19.026;2022-09-02T11:35:28;99871.44;;;21.27;48.30
54512;BME280;40419;47.438;19.026;2022-09-02T11:38:31;99871.72;;;21.36;48.68
54512;BME280;40419;47.438;19.026;2022-09-02T11:54:23;99857.78;;;20.64;45.60
54512;BME280;40419;47.438;19.026;2022-09-02T11:56:57;99858.72;;;20.90;47.99
54512;BME280;40419;47.438;19.026;2022-09-02T12:02:32;99855.47;;;21.29;46.53
54512;BME280;40419;47.438;19.026;2022-09-02T12:08:04;99849.16;;;21.34;46.51
54512;BME280;40419;47.438;19.026;2022-09-02T12:13:31;99850.81;;;21.24;46.48
54512;BME280;40419;47.438;19.026;2022-09-02T12:24:58;99846.91;;;20.89;47.45
54512;BME280;40419;47.438;19.026;2022-09-02T12:27:34;99845.28;;;21.14;44.61
54512;BME280;40419;47.438;19.026;2022-09-02T12:30:06;99840.56;;;20.99;44.93
54512;BME280;40419;47.438;19.026;2022-09-02T12:35:28;99844.16;;;20.95;45.05
54512;BME280;40419;47.438;19.026;2022-09-02T12:40:46;99843.88;;;21.01;43.13
54512;BME280;40419;47.438;19.026;2022-09-02T12:43:32;99831.22;;;21.05;45.87
54512;BME280;40419;47.438;19.026;2022-09-02T12:46:15;99835.63;;;20.96;43.56
54512;BME280;40419;47.438;19.026;2022-09-02T12:48:49;99841.13;;;20.96;45.23
54512;BME280;40419;47.438;19.026;2022-09-02T12:51:56;99833.72;;;21.22;45.18
54512;BME280;40419;47.438;19.026;2022-09-02T12:54:35;99827.97;;;21.50;43.95
54512;BME280;40419;47.438;19.026;2022-09-02T12:57:09;99829.03;;;21.43;44.55
54512;BME280;40419;47.438;19.026;2022-09-02T12:59:40;99832.34;;;21.20;47.09
54512;BME280;40419;47.438;19.026;2022-09-02T13:07:49;99832.63;;;21.23;43.36
54512;BME280;40419;47.438;19.026;2022-09-02T13:10:40;99819.16;;;21.58;43.55
54512;BME280;40419;47.438;19.026;2022-09-02T13:25:04;99812.53;;;21.38;45.26
54512;BME280;40419;47.438;19.026;2022-09-02T13:33:08;99807.56;;;21.20;45.73
54512;BME280;40419;47.438;19.026;2022-09-02T13:35:38;99814.44;;;21.33;44.35
54512;BME280;40419;47.438;19.026;2022-09-02T13:38:08;99811.41;;;21.19;45.27
54512;BME280;40419;47.438;19.026;2022-09-02T13:40:36;99811.16;;;21.15;43.48
54512;BME280;40419;47.438;19.026;2022-09-02T13:43:15;99804.53;;;21.01;45.74
54512;BME280;40419;47.438;19.026;2022-09-02T13:45:44;99806.44;;;21.21;44.56
54512;BME280;40419;47.438;19.026;2022-09-02T13:48:36;99809.47;;;21.04;45.28
54512;BME280;40419;47.438;19.026;2022-09-02T13:51:12;99807.25;;;20.91;45.85
54512;BME280;40419;47.438;19.026;2022-09-02T13:53:45;99801.78;;;21.11;45.68
54512;BME280;40419;47.438;19.026;2022-09-02T13:56:15;99807.28;;;21.01;45.34
54512;BME280;40419;47.438;19.026;2022-09-02T13:58:52;99807.00;;;21.18;44.79
54512;BME280;40419;47.438;19.026;2022-09-02T14:01:34;99794.06;;;21.03;46.31
54512;BME280;40419;47.438;19.026;2022-09-02T14:04:08;99798.19;;;20.95;46.02
54512;BME280;40419;47.438;19.026;2022-09-02T14:06:36;99800.09;;;20.84;46.22
54512;BME280;40419;47.438;19.026;2022-09-02T14:09:10;99792.97;;;21.19;45.23
54512;BME280;40419;47.438;19.026;2022-09-02T14:11:43;99801.50;;;21.02;44.90
54512;BME280;40419;47.438;19.026;2022-09-02T14:14:16;99798.47;;;20.99;46.12
54512;BME280;40419;47.438;19.026;2022-09-02T14:16:46;99794.06;;;21.03;45.26
54512;BME280;40419;47.438;19.026;2022-09-02T14:21:45;99795.72;;;21.30;45.08
54512;BME280;40419;47.438;19.026;2022-09-02T14:24:20;99796.56;;;21.20;44.86
54512;BME280;40419;47.438;19.026;2022-09-02T14:26:52;99802.88;;;21.05;44.92
54512;BME280;40419;47.438;19.026;2022-09-02T14:29:25;99807.28;;;20.96;46.29
54512;BME280;40419;47.438;19.026;2022-09-02T14:34:44;99804.53;;;21.01;48.15
54512;BME280;40419;47.438;19.026;2022-09-02T14:42:32;99790.50;;;21.13;48.54
54512;BME280;40419;47.438;19.026;2022-09-02T14:44:59;99804.00;;;21.24;46.13
54512;BME280;40419;47.438;19.026;2022-09-02T14:47:37;99797.91;;;21.22;46.36
54512;BME280;40419;47.438;19.026;2022-09-02T14:50:03;99808.66;;;21.34;46.25
54512;BME280;40419;47.438;19.026;2022-09-02T14:52:43;99805.63;;;21.31;45.99
54512;BME280;40419;47.438;19.026;2022-09-02T14:55:43;99806.75;;;21.24;44.75
54512;BME280;40419;47.438;19.026;2022-09-02T14:58:12;99815.00;;;21.24;45.74
54512;BME280;40419;47.438;19.026;2022-09-02T15:00:51;99811.69;;;21.17;45.77
54512;BME280;40419;47.438;19.026;2022-09-02T15:03:21;99825.47;;;21.17;49.74
54512;BME280;40419;47.438;19.026;2022-09-02T15:05:49;99819.66;;;21.03;50.81
54512;BME280;40419;47.438;19.026;2022-09-02T15:08:19;99823.78;;;20.96;52.21
54512;BME280;40419;47.438;19.026;2022-09-02T15:10:47;99820.75;;;20.87;53.95
54512;BME280;40419;47.438;19.026;2022-09-02T15:13:28;99823.19;;;20.78;53.67
54512;BME280;40419;47.438;19.026;2022-09-02T15:15:59;99814.94;;;20.78;53.56
54512;BME280;40419;47.438;19.026;2022-09-02T15:18:25;99821.00;;;20.70;53.83
54512;BME280;40419;47.438;19.026;2022-09-02T15:20:51;99827.31;;;20.65;54.47
54512;BME280;40419;47.438;19.026;2022-09-02T15:23:17;99823.13;;;20.63;55.15
54512;BME280;40419;47.438;19.026;2022-09-02T15:25:45;99826.97;;;20.57;55.54
54512;BME280;40419;47.438;19.026;2022-09-02T15:28:11;99828.31;;;20.54;55.79
54512;BME280;40419;47.438;19.026;2022-09-02T15:30:39;99829.88;;;20.29;56.28
54512;BME280;40419;47.438;19.026;2022-09-02T15:33:08;99835.00;;;20.15;56.31